East Saint Paul, Manitoba

1:21 PM CST on February 08, 2016 (GMT -0600)
Village of Birds Hill | | Change Station
CLOSE
Current Station
Personal Weather Station
Location: East St. Paul, MANITOBA
Elevation: 760 ft
Nearby Weather Stations

Elev 760 ft 49.98 °N, 97.00 °W | Updated 20 seconds ago

Low Drifting Snow
Low Drifting Snow
10.8 °F
Feels Like -7 °F
N
17.4
Wind Variable Wind from NNW
Gusts 20.1 mph

Today is forecast to be nearly the same temperature as yesterday.

Today
High -- | Low -- °F
--% Chance of Precip.
Yesterday
High -- | Low -- °F
Precip. -- in
Pressure 30.30 in
Visibility 15.0 miles
Clouds Mostly Cloudy 3200 ft
Windchill -7 °F
Dew Point -3 °F
Humidity 54%
Rainfall 0.00 in
Snow Depth Not available.
7:51 AM 5:33 PM
New Moon, 0% visible
METAR CYWG 081900Z 33021G27KT 15SM DRSN BKN032 M12/M16 A3023 RMK SC7 SLP259
Pressure 30.30 in
Visibility 15.0 miles
Clouds Mostly Cloudy 3200 ft
Windchill -7 °F
Dew Point -3 °F
Humidity 54%
Rainfall 0.00 in
Snow Depth Not available.
7:51 AM 5:33 PM
New Moon, 0% visible
METAR CYWG 081900Z 33021G27KT 15SM DRSN BKN032 M12/M16 A3023 RMK SC7 SLP259

10-Day Weather Forecast

Almanac

Astronomy

Feb. 08, 2016 Rise Set
Actual Time
Civil Twilight
Nautical Twilight
Astronomical Twilight
Moon
Length of Visible Light
Length of Day
Tomorrow will be .
, % of the Moon is Illuminated

Today's Extremes

Country Highs Country Lows

Community

WunderPhotos

Upload Photos

1,891,499 photos uploaded!

WunderBlog® & News

Nearby

Air Quality

  Air Quality AQ Index Pollutant
Not available.

Snow Depth

Station Depth Elevation

Earthquake Activity

City Distance Mag. Time & Date
Minimum magnitude displayed is 2.5.

Coastal Water Temperatures

Place Temperature

Stations

Nearby Weather Stations

Station Location Temp. Windchill Dew Point Humidity Wind Precip. Elev Updated Type
                   

Watches & Warnings

There are currently no watches in effect.